createdAt,value
2022-09-07T00:01:09.697Z,98446.56
2022-09-07T00:03:37.776Z,98444.38
2022-09-07T00:06:10.855Z,98436.69
2022-09-07T00:08:41.180Z,98445.59
2022-09-07T00:11:13.454Z,98439.00
2022-09-07T00:13:42.700Z,98438.00
2022-09-07T00:16:12.680Z,98432.53
2022-09-07T00:18:45.195Z,98433.84
2022-09-07T00:21:15.718Z,98428.38
2022-09-07T00:23:45.945Z,98424.47
2022-09-07T00:26:15.667Z,98422.91
2022-09-07T00:28:44.334Z,98426.97
2022-09-07T00:31:14.208Z,98411.31
2022-09-07T00:33:42.549Z,98403.53
2022-09-07T00:36:10.764Z,98393.25
2022-09-07T00:38:39.315Z,98390.19
2022-09-07T00:41:08.998Z,98383.50
2022-09-07T00:43:38.608Z,98384.16
2022-09-07T00:46:08.875Z,98378.97
2022-09-07T00:48:41.521Z,98378.78
2022-09-07T00:51:13.140Z,98368.69
2022-09-07T00:53:44.504Z,98362.56
2022-09-07T00:56:14.887Z,98354.78
2022-09-07T00:58:44.840Z,98362.31
2022-09-07T01:01:13.080Z,98368.69
2022-09-07T01:03:44.620Z,98366.09
2022-09-07T01:06:17.343Z,98359.78
2022-09-07T01:08:48.591Z,98357.19
2022-09-07T01:11:19.495Z,98357.00
2022-09-07T01:13:48.511Z,98354.53
2022-09-07T01:16:27.925Z,98346.09
2022-09-07T01:19:10.193Z,98343.69
2022-09-07T01:21:52.408Z,98341.94
2022-09-07T01:24:39.893Z,98347.63
2022-09-07T01:27:59.222Z,98354.69
2022-09-07T01:30:28.575Z,98354.56
2022-09-07T01:33:16.242Z,98356.91
2022-09-07T01:35:51.554Z,98361.91
2022-09-07T01:38:26.291Z,98362.88
2022-09-07T01:41:03.279Z,98367.91
2022-09-07T01:43:39.023Z,98368.00
2022-09-07T01:46:20.031Z,98370.00
2022-09-07T01:48:53.452Z,98388.78
2022-09-07T01:51:24.208Z,98381.28
2022-09-07T01:53:58.128Z,98395.78
2022-09-07T01:56:29.910Z,98396.41
2022-09-07T01:59:04.776Z,98397.56
2022-09-07T02:01:37.639Z,98397.22
2022-09-07T02:04:11.127Z,98389.84
2022-09-07T02:06:46.060Z,98390.63
2022-09-07T02:09:19.987Z,98394.13
2022-09-07T02:11:50.114Z,98394.47
2022-09-07T02:14:24.620Z,98406.66
2022-09-07T02:16:58.806Z,98403.69
2022-09-07T02:19:31.091Z,98397.56
2022-09-07T02:22:04.344Z,98405.50
2022-09-07T02:24:37.717Z,98408.25
2022-09-07T02:27:12.189Z,98410.47
2022-09-07T02:29:41.725Z,98408.00
2022-09-07T02:32:09.688Z,98416.19
2022-09-07T02:34:38.322Z,98419.84
2022-09-07T02:37:10.030Z,98428.53
2022-09-07T02:39:38.504Z,98446.50
2022-09-07T02:42:07.156Z,98455.38
2022-09-07T02:44:38.399Z,98482.34
2022-09-07T02:47:28.093Z,98464.38
2022-09-07T02:50:10.651Z,98471.53
2022-09-07T02:52:52.003Z,98470.16
2022-09-07T02:55:32.880Z,98468.75
2022-09-07T02:58:12.838Z,98460.41
2022-09-07T03:00:46.201Z,98462.72
2022-09-07T03:03:23.487Z,98461.63
2022-09-07T03:05:56.132Z,98460.56
2022-09-07T03:08:27.466Z,98457.28
2022-09-07T03:10:55.821Z,98465.69
2022-09-07T03:13:25.992Z,98465.16
2022-09-07T03:15:56.251Z,98466.28
2022-09-07T03:18:28.009Z,98456.06
2022-09-07T03:20:56.295Z,98445.88
2022-09-07T03:23:24.980Z,98453.38
2022-09-07T03:25:52.971Z,98462.06
2022-09-07T03:28:21.026Z,98458.28
2022-09-07T03:30:48.985Z,98461.25
2022-09-07T03:33:17.727Z,98449.31
2022-09-07T03:35:57.503Z,98456.63
2022-09-07T03:38:25.506Z,98459.69
2022-09-07T03:40:59.428Z,98462.38
2022-09-07T03:43:30.223Z,98463.13
2022-09-07T03:45:59.777Z,98463.13
2022-09-07T03:48:28.534Z,98452.72
2022-09-07T03:50:59.362Z,98456.44
2022-09-07T03:53:27.590Z,98456.06
2022-09-07T03:55:59.823Z,98456.81
2022-09-07T03:58:30.331Z,98462.28
2022-09-07T04:01:00.443Z,98459.22
2022-09-07T04:03:28.526Z,98461.72
2022-09-07T04:05:57.333Z,98462.19
2022-09-07T04:08:27.508Z,98458.03
2022-09-07T04:10:57.323Z,98461.09
2022-09-07T04:13:25.453Z,98463.56
2022-09-07T04:15:54.053Z,98470.06
2022-09-07T04:18:25.280Z,98471.22
2022-09-07T04:20:53.192Z,98480.06
2022-09-07T04:23:21.199Z,98477.69
2022-09-07T04:25:51.148Z,98473.19
2022-09-07T04:28:20.690Z,98473.88
2022-09-07T04:30:48.969Z,98467.38
2022-09-07T04:33:17.000Z,98473.72
2022-09-07T04:35:44.882Z,98472.66
2022-09-07T04:38:16.348Z,98478.81
2022-09-07T04:40:44.967Z,98485.03
2022-09-07T04:43:14.277Z,98490.38
2022-09-07T04:45:42.627Z,98489.28
2022-09-07T04:48:10.563Z,98490.81
2022-09-07T04:50:38.475Z,98478.63
2022-09-07T04:53:06.415Z,98473.97
2022-09-07T04:55:34.326Z,98471.25
2022-09-07T04:58:02.290Z,98470.44
2022-09-07T05:00:32.069Z,98463.59
2022-09-07T05:03:00.015Z,98468.09
2022-09-07T05:05:27.900Z,98473.03
2022-09-07T05:07:58.492Z,98476.13
2022-09-07T05:10:26.417Z,98475.22
2022-09-07T05:12:54.335Z,98474.16
2022-09-07T05:15:24.375Z,98472.41
2022-09-07T05:17:53.919Z,98478.09
2022-09-07T05:20:21.884Z,98468.00
2022-09-07T05:22:49.838Z,98477.06
2022-09-07T05:25:17.780Z,98472.72
2022-09-07T05:27:45.682Z,98472.81
2022-09-07T05:33:04.440Z,98470.56
2022-09-07T05:35:32.451Z,98477.59
2022-09-07T05:38:00.380Z,98479.38
2022-09-07T05:40:33.618Z,98477.75
2022-09-07T05:43:04.174Z,98486.91
2022-09-07T05:45:32.459Z,98488.44
2022-09-07T05:48:00.383Z,98496.06
2022-09-07T05:50:29.610Z,98488.31
2022-09-07T05:52:57.528Z,98491.19
2022-09-07T05:55:30.375Z,98498.69
2022-09-07T05:57:58.777Z,98493.19
2022-09-07T06:00:27.203Z,98480.44
2022-09-07T06:02:55.120Z,98490.16
2022-09-07T06:05:23.021Z,98488.63
2022-09-07T06:07:53.095Z,98490.09
2022-09-07T06:13:09.501Z,98496.28
2022-09-07T06:15:37.404Z,98510.38
2022-09-07T06:18:05.365Z,98501.56
2022-09-07T06:20:33.258Z,98496.31
2022-09-07T06:23:02.565Z,98503.88
2022-09-07T06:25:30.573Z,98497.19
2022-09-07T06:27:59.649Z,98498.59
2022-09-07T06:30:27.582Z,98508.59
2022-09-07T06:32:55.625Z,98494.66
2022-09-07T06:35:23.513Z,98493.53
2022-09-07T06:37:51.502Z,98487.53
2022-09-07T06:40:20.787Z,98480.75
2022-09-07T06:42:48.722Z,98477.78
2022-09-07T06:45:19.927Z,98478.28
2022-09-07T06:47:47.923Z,98487.75
2022-09-07T06:50:17.202Z,98483.16
2022-09-07T06:55:34.611Z,98479.50
2022-09-07T06:58:03.052Z,98485.94
2022-09-07T07:00:30.981Z,98494.69
2022-09-07T07:02:58.959Z,98484.84
2022-09-07T07:05:27.005Z,98488.22
2022-09-07T07:07:56.310Z,98490.63
2022-09-07T07:10:25.096Z,98493.53
2022-09-07T07:12:58.003Z,98490.66
2022-09-07T07:15:28.913Z,98486.56
2022-09-07T07:18:05.192Z,98490.06
2022-09-07T07:20:43.046Z,98487.41
2022-09-07T07:23:12.092Z,98493.22
2022-09-07T07:25:40.090Z,98492.38
2022-09-07T07:30:58.325Z,98500.56
2022-09-07T07:33:26.755Z,98502.69
2022-09-07T07:35:54.672Z,98502.91
2022-09-07T07:44:01.033Z,98507.13
2022-09-07T07:46:32.345Z,98513.34
2022-09-07T07:49:00.441Z,98527.09
2022-09-07T07:51:30.909Z,98528.25
2022-09-07T07:53:59.216Z,98522.66
2022-09-07T07:56:29.802Z,98525.88
2022-09-07T07:58:57.740Z,98525.44
2022-09-07T08:01:27.250Z,98528.59
2022-09-07T08:03:55.219Z,98535.78
2022-09-07T08:06:23.107Z,98529.50
2022-09-07T08:08:51.180Z,98525.91
2022-09-07T08:11:21.988Z,98536.34
2022-09-07T08:13:52.098Z,98533.72
2022-09-07T08:16:20.239Z,98541.38
2022-09-07T08:18:49.804Z,98541.78
2022-09-07T08:21:18.225Z,98547.38
2022-09-07T08:23:45.958Z,98546.22
2022-09-07T08:26:13.756Z,98542.66
2022-09-07T08:28:43.896Z,98530.47
2022-09-07T08:31:13.532Z,98533.53
2022-09-07T08:33:41.572Z,98542.16
2022-09-07T08:36:14.006Z,98548.91
2022-09-07T08:38:42.307Z,98544.41
2022-09-07T08:41:47.188Z,98540.97
2022-09-07T08:44:22.001Z,98541.47
2022-09-07T08:46:54.267Z,98533.06
2022-09-07T08:49:29.935Z,98535.06
2022-09-07T08:52:04.365Z,98543.56
2022-09-07T08:54:33.087Z,98536.19
2022-09-07T08:59:58.702Z,98537.63
2022-09-07T09:02:28.189Z,98530.53
2022-09-07T09:07:53.785Z,98532.91
2022-09-07T09:10:33.410Z,98529.53
2022-09-07T09:13:07.587Z,98536.75
2022-09-07T09:15:51.704Z,98533.72
2022-09-07T09:18:31.497Z,98531.91
2022-09-07T09:21:00.723Z,98522.75
2022-09-07T09:23:37.418Z,98518.84
2022-09-07T09:26:14.650Z,98522.88
2022-09-07T09:28:42.794Z,98512.06
2022-09-07T09:31:18.804Z,98516.72
2022-09-07T09:34:08.422Z,98514.59
2022-09-07T09:36:42.602Z,98515.06
2022-09-07T09:39:31.722Z,98508.63
2022-09-07T09:42:02.614Z,98504.03
2022-09-07T09:44:35.409Z,98506.38
2022-09-07T09:49:53.548Z,98511.69
2022-09-07T09:52:33.672Z,98507.81
2022-09-07T09:55:32.684Z,98503.16
2022-09-07T10:04:01.439Z,98492.53
2022-09-07T10:06:32.265Z,98488.53
2022-09-07T10:09:02.449Z,98495.41
2022-09-07T10:14:37.294Z,98473.00
2022-09-07T10:17:14.437Z,98483.72
2022-09-07T10:19:44.239Z,98469.75
2022-09-07T10:22:25.749Z,98457.53
2022-09-07T10:24:53.577Z,98471.66
2022-09-07T10:27:31.032Z,98468.78
2022-09-07T10:30:01.812Z,98467.56
2022-09-07T10:32:53.125Z,98460.50
2022-09-07T10:41:08.373Z,98456.34
2022-09-07T10:44:03.706Z,98448.09
2022-09-07T10:47:00.675Z,98450.88
2022-09-07T10:49:36.186Z,98453.16
2022-09-07T10:52:16.217Z,98444.38
2022-09-07T10:54:52.276Z,98438.25
2022-09-07T10:57:49.118Z,98437.94
2022-09-07T11:00:20.741Z,98448.09
2022-09-07T11:06:01.909Z,98453.44
2022-09-07T11:14:27.259Z,98436.47
2022-09-07T11:17:01.745Z,98433.06
2022-09-07T11:19:36.256Z,98430.94
2022-09-07T11:22:16.892Z,98426.78
2022-09-07T11:25:29.212Z,98413.66
2022-09-07T11:27:43.566Z,98407.63
2022-09-07T11:30:24.673Z,98410.84
2022-09-07T11:33:11.507Z,98416.44
2022-09-07T11:35:48.336Z,98412.03
2022-09-07T11:38:25.418Z,98394.75
2022-09-07T11:41:25.493Z,98397.63
2022-09-07T11:44:05.661Z,98400.75
2022-09-07T11:46:41.798Z,98399.13
2022-09-07T11:49:18.890Z,98398.78
2022-09-07T11:51:55.213Z,98391.19
2022-09-07T11:54:39.509Z,98389.59
2022-09-07T11:57:26.304Z,98389.78
2022-09-07T12:00:03.863Z,98398.06
2022-09-07T12:03:13.155Z,98393.50
2022-09-07T12:06:03.007Z,98396.78
2022-09-07T12:08:44.237Z,98389.91
2022-09-07T12:11:27.452Z,98384.06
2022-09-07T12:14:18.833Z,98387.88
2022-09-07T12:17:07.277Z,98373.34
2022-09-07T12:19:35.268Z,98369.25
2022-09-07T12:22:05.394Z,98378.16
2022-09-07T12:24:52.393Z,98377.91
2022-09-07T12:27:41.675Z,98381.94
2022-09-07T12:30:51.931Z,98377.44
2022-09-07T12:33:39.181Z,98376.41
2022-09-07T12:36:50.243Z,98378.91
2022-09-07T12:39:25.795Z,98376.72
2022-09-07T12:45:38.157Z,98362.38
2022-09-07T12:48:12.112Z,98358.81
2022-09-07T12:50:44.267Z,98347.22
2022-09-07T12:53:29.711Z,98341.78
2022-09-07T12:56:16.532Z,98348.34
2022-09-07T12:58:56.870Z,98351.69
2022-09-07T13:01:36.392Z,98355.69
2022-09-07T13:04:31.801Z,98354.00
2022-09-07T13:07:25.679Z,98352.34
2022-09-07T13:09:57.351Z,98348.72
2022-09-07T13:15:43.592Z,98350.78
2022-09-07T13:18:34.050Z,98345.16
2022-09-07T13:21:30.934Z,98342.44
2022-09-07T13:24:46.381Z,98327.69
2022-09-07T13:27:51.825Z,98318.41
2022-09-07T13:30:27.166Z,98324.97
2022-09-07T13:33:43.151Z,98318.16
2022-09-07T13:36:21.864Z,98309.44
2022-09-07T13:38:53.110Z,98312.25
2022-09-07T13:41:23.727Z,98306.88
2022-09-07T13:44:00.333Z,98300.06
2022-09-07T13:46:50.154Z,98306.84
2022-09-07T13:49:29.876Z,98301.56
2022-09-07T13:52:07.506Z,98295.78
2022-09-07T13:54:50.560Z,98299.78
2022-09-07T13:57:26.367Z,98298.56
2022-09-07T13:59:56.480Z,98292.00
2022-09-07T14:02:26.851Z,98291.41
2022-09-07T14:04:57.376Z,98286.59
2022-09-07T14:07:26.880Z,98292.13
2022-09-07T14:10:19.578Z,98284.88
2022-09-07T14:12:50.403Z,98289.34
2022-09-07T14:15:28.172Z,98281.78
2022-09-07T14:18:04.946Z,98282.13
2022-09-07T14:20:37.933Z,98279.06
2022-09-07T14:23:13.277Z,98284.66
2022-09-07T14:28:36.944Z,98280.19
2022-09-07T14:31:09.295Z,98276.56
2022-09-07T14:33:37.515Z,98281.78
2022-09-07T14:36:29.574Z,98272.00
2022-09-07T14:39:04.487Z,98278.25
2022-09-07T14:41:34.673Z,98275.50
2022-09-07T14:44:02.937Z,98269.44
2022-09-07T14:46:34.086Z,98270.16
2022-09-07T14:49:04.919Z,98272.94
2022-09-07T14:51:36.545Z,98265.63
2022-09-07T14:54:07.000Z,98257.34
2022-09-07T14:56:36.571Z,98259.44
2022-09-07T14:59:28.134Z,98261.69
2022-09-07T15:02:41.011Z,98259.94
2022-09-07T15:05:30.785Z,98252.63
2022-09-07T15:07:59.854Z,98256.63
2022-09-07T15:10:41.281Z,98248.47
2022-09-07T15:13:25.905Z,98235.75
2022-09-07T15:15:59.205Z,98241.38
2022-09-07T15:18:54.633Z,98232.66
2022-09-07T15:21:28.882Z,98233.84
2022-09-07T15:23:59.065Z,98234.31
2022-09-07T15:29:20.632Z,98239.22
2022-09-07T15:32:01.066Z,98237.63
2022-09-07T15:34:29.450Z,98240.59
2022-09-07T15:37:00.279Z,98237.25
2022-09-07T15:39:31.129Z,98238.31
2022-09-07T15:42:58.963Z,98236.22
2022-09-07T15:44:47.485Z,98234.19
2022-09-07T15:50:03.393Z,98245.06
2022-09-07T15:52:34.741Z,98249.50
2022-09-07T15:55:02.560Z,98257.53
2022-09-07T15:57:48.724Z,98248.50
2022-09-07T16:00:17.467Z,98243.25
2022-09-07T16:03:09.411Z,98239.56
2022-09-07T16:05:41.426Z,98235.28
2022-09-07T16:08:26.392Z,98228.41
2022-09-07T16:10:55.694Z,98222.63
2022-09-07T16:13:33.870Z,98227.59
2022-09-07T16:16:06.392Z,98210.81
2022-09-07T16:18:47.645Z,98203.59
2022-09-07T16:21:18.448Z,98199.25
2022-09-07T16:23:50.627Z,98195.38
2022-09-07T16:26:20.457Z,98200.31
2022-09-07T16:28:52.423Z,98203.47
2022-09-07T16:31:30.916Z,98202.19
2022-09-07T16:33:59.140Z,98213.63
2022-09-07T16:36:57.404Z,98203.75
2022-09-07T16:44:04.244Z,98213.41
2022-09-07T16:46:34.800Z,98220.16
2022-09-07T16:49:02.979Z,98223.78
2022-09-07T16:51:33.239Z,98219.19
2022-09-07T16:54:01.502Z,98212.47
2022-09-07T16:56:33.653Z,98214.16
2022-09-07T16:59:08.656Z,98207.97
2022-09-07T17:01:38.957Z,98219.78
2022-09-07T17:04:11.022Z,98210.97
2022-09-07T17:06:40.560Z,98222.69
2022-09-07T17:09:09.065Z,98221.19
2022-09-07T17:11:37.766Z,98219.06
2022-09-07T17:14:07.499Z,98220.25
2022-09-07T17:16:37.602Z,98210.72
2022-09-07T17:21:55.367Z,98205.03
2022-09-07T17:24:25.237Z,98210.25
2022-09-07T17:26:53.093Z,98203.31
2022-09-07T17:29:22.260Z,98202.28
2022-09-07T17:34:37.985Z,98200.72
2022-09-07T17:37:06.010Z,98206.69
2022-09-07T17:39:33.845Z,98210.38
2022-09-07T17:42:02.430Z,98216.38
2022-09-07T17:44:35.999Z,98217.38
2022-09-07T17:47:06.036Z,98225.44
2022-09-07T17:49:33.796Z,98234.41
2022-09-07T17:52:01.693Z,98236.53
2022-09-07T17:54:31.864Z,98236.75
2022-09-07T17:56:59.670Z,98245.28
2022-09-07T18:02:17.210Z,98264.41
2022-09-07T18:04:45.079Z,98267.22
2022-09-07T18:07:15.686Z,98277.34
2022-09-07T18:09:43.591Z,98275.47
2022-09-07T18:12:11.413Z,98279.56
2022-09-07T18:14:39.286Z,98279.94
2022-09-07T18:17:07.125Z,98280.53
2022-09-07T18:19:36.438Z,98269.44
2022-09-07T18:22:04.688Z,98256.13
2022-09-07T18:24:32.462Z,98249.63
2022-09-07T18:27:00.309Z,98248.16
2022-09-07T18:29:32.531Z,98235.03
2022-09-07T18:32:02.515Z,98208.50
2022-09-07T18:34:32.752Z,98208.06
2022-09-07T18:37:02.407Z,98215.03
2022-09-07T18:39:31.365Z,98215.66
2022-09-07T18:41:59.197Z,98220.22
2022-09-07T18:47:22.086Z,98223.59
2022-09-07T18:49:51.849Z,98239.41
2022-09-07T18:55:10.579Z,98280.75
2022-09-07T18:57:38.658Z,98286.38
2022-09-07T19:00:09.842Z,98274.13
2022-09-07T19:02:37.680Z,98270.78
2022-09-07T19:07:55.712Z,98258.72
2022-09-07T19:10:23.541Z,98264.13
2022-09-07T19:12:51.380Z,98262.88
2022-09-07T19:15:20.440Z,98270.34
2022-09-07T19:17:48.235Z,98260.38
2022-09-07T19:20:16.067Z,98252.75
2022-09-07T19:22:43.870Z,98247.50
2022-09-07T19:25:13.253Z,98253.78
2022-09-07T19:27:41.093Z,98253.78
2022-09-07T19:30:10.218Z,98259.78
2022-09-07T19:32:38.268Z,98258.34
2022-09-07T19:35:06.536Z,98267.47
2022-09-07T19:37:34.467Z,98272.88
2022-09-07T19:40:02.506Z,98272.69
2022-09-07T19:42:31.737Z,98270.75
2022-09-07T19:45:00.083Z,98268.69
2022-09-07T19:47:28.144Z,98263.53
2022-09-07T19:49:58.248Z,98247.16
2022-09-07T19:52:26.796Z,98254.63
2022-09-07T19:54:54.640Z,98241.75
2022-09-07T19:57:22.439Z,98235.72
2022-09-07T19:59:53.028Z,98230.72
2022-09-07T20:02:20.853Z,98235.47
2022-09-07T20:04:48.861Z,98236.56
2022-09-07T20:07:16.717Z,98228.84
2022-09-07T20:09:50.439Z,98226.97
2022-09-07T20:12:19.135Z,98225.94
2022-09-07T20:14:46.931Z,98217.84
2022-09-07T20:17:16.138Z,98223.25
2022-09-07T20:19:44.148Z,98210.16
2022-09-07T20:22:11.947Z,98209.75
2022-09-07T20:24:39.969Z,98207.03
2022-09-07T20:27:07.764Z,98206.84
2022-09-07T20:29:35.858Z,98195.22
2022-09-07T20:32:04.280Z,98196.06
2022-09-07T20:34:33.767Z,98193.78
2022-09-07T20:37:02.057Z,98185.22
2022-09-07T20:39:29.890Z,98176.94
2022-09-07T20:41:57.766Z,98173.13
2022-09-07T20:44:25.579Z,98168.72
2022-09-07T20:46:53.403Z,98162.34
2022-09-07T20:49:21.271Z,98163.66
2022-09-07T20:51:50.677Z,98160.34
2022-09-07T20:54:19.104Z,98165.94
2022-09-07T20:56:46.961Z,98159.94
2022-09-07T20:59:15.304Z,98162.81
2022-09-07T21:01:43.198Z,98165.09
2022-09-07T21:04:11.033Z,98174.00
2022-09-07T21:06:38.926Z,98177.34
2022-09-07T21:09:08.088Z,98174.00
2022-09-07T21:11:36.468Z,98173.56
2022-09-07T21:14:06.908Z,98171.47
2022-09-07T21:16:37.602Z,98167.34
2022-09-07T21:19:07.894Z,98177.28
2022-09-07T21:21:39.185Z,98171.88
2022-09-07T21:24:16.812Z,98180.59
2022-09-07T21:26:44.900Z,98186.81
2022-09-07T21:29:18.366Z,98196.56
2022-09-07T21:31:46.335Z,98204.47
2022-09-07T21:34:15.424Z,98205.94
2022-09-07T21:36:43.633Z,98199.53
2022-09-07T21:39:14.699Z,98195.81
2022-09-07T21:41:43.073Z,98193.09
2022-09-07T21:44:13.385Z,98181.50
2022-09-07T21:46:42.283Z,98185.03
2022-09-07T21:49:10.290Z,98181.84
2022-09-07T21:51:38.125Z,98178.09
2022-09-07T21:54:06.058Z,98180.16
2022-09-07T21:56:35.480Z,98187.63
2022-09-07T21:59:04.657Z,98189.72
2022-09-07T22:01:33.165Z,98192.63
2022-09-07T22:04:02.569Z,98189.72
2022-09-07T22:06:32.277Z,98181.22
2022-09-07T22:09:01.208Z,98175.22
2022-09-07T22:11:30.676Z,98172.88
2022-09-07T22:14:02.659Z,98176.38
2022-09-07T22:16:32.344Z,98162.31
2022-09-07T22:19:00.486Z,98150.94
2022-09-07T22:21:30.710Z,98151.06
2022-09-07T22:24:00.578Z,98151.44
2022-09-07T22:26:30.111Z,98147.34
2022-09-07T22:29:00.034Z,98151.50
2022-09-07T22:31:29.751Z,98143.22
2022-09-07T22:33:58.463Z,98133.28
2022-09-07T22:36:28.424Z,98131.63
2022-09-07T22:38:57.870Z,98130.16
2022-09-07T22:41:27.337Z,98127.06
2022-09-07T22:43:56.034Z,98117.84
2022-09-07T22:46:30.856Z,98106.84
2022-09-07T22:49:00.089Z,98105.47
2022-09-07T22:51:28.735Z,98104.41
2022-09-07T22:53:57.859Z,98108.59
2022-09-07T22:56:28.173Z,98105.41
2022-09-07T22:58:58.674Z,98111.06
2022-09-07T23:01:29.718Z,98104.19
2022-09-07T23:03:58.081Z,98091.72
2022-09-07T23:06:27.972Z,98090.19
2022-09-07T23:08:57.813Z,98094.44
2022-09-07T23:11:25.786Z,98095.88
2022-09-07T23:13:54.649Z,98100.06
2022-09-07T23:16:23.406Z,98095.13
2022-09-07T23:18:52.977Z,98095.19
2022-09-07T23:21:21.145Z,98106.06
2022-09-07T23:23:53.154Z,98091.88
2022-09-07T23:26:21.839Z,98093.19
2022-09-07T23:28:52.369Z,98084.34
2022-09-07T23:31:20.413Z,98084.69
2022-09-07T23:33:48.718Z,98077.84
2022-09-07T23:36:18.628Z,98071.13
2022-09-07T23:38:47.374Z,98066.88
2022-09-07T23:41:16.431Z,98063.16
2022-09-07T23:43:44.756Z,98049.84
2022-09-07T23:46:13.236Z,98053.13
2022-09-07T23:48:41.463Z,98049.38
2022-09-07T23:51:09.358Z,98048.03
2022-09-07T23:53:38.635Z,98048.94
2022-09-07T23:56:07.482Z,98048.34
2022-09-07T23:58:37.892Z,98035.81
